Time;durP1;ratioP1;P1;durP2;ratioP2;P2;SDS_P1;SDS_P2;PMS_P1;PMS_P2;Temp;Humidity;BMP_temperature;BMP_pressure;BME280_temperature;BME280_humidity;BME280_pressure;Samples;Min_cycle;Max_cycle;Signal;HPM_P1;HPM_P2
2022/07/11 00:01:32;;;;;;;5.13;3.30;;;11.50;99.90;;;;;;4995044;28;20208;-71
2022/07/11 00:03:59;;;;;;;10.27;4.30;;;11.40;99.90;;;;;;4995042;28;20201;-70
2022/07/11 00:06:26;;;;;;;9.37;3.57;;;11.40;99.90;;;;;;4996562;28;20205;-70
2022/07/11 00:08:52;;;;;;;4.40;3.00;;;11.40;99.90;;;;;;4995167;28;20227;-71
2022/07/11 00:11:19;;;;;;;4.40;3.17;;;11.40;99.90;;;;;;4994902;28;20205;-71
2022/07/11 00:13:46;;;;;;;6.43;2.80;;;11.40;99.90;;;;;;4994852;28;20291;-70
2022/07/11 00:16:13;;;;;;;7.30;3.27;;;11.40;99.90;;;;;;4994819;28;20291;-70
2022/07/11 00:18:40;;;;;;;6.70;3.10;;;11.30;99.90;;;;;;4996234;28;20291;-70
2022/07/11 00:21:07;;;;;;;5.23;3.33;;;11.30;99.90;;;;;;4994442;28;20247;-70
2022/07/11 00:23:34;;;;;;;9.10;3.30;;;11.20;99.90;;;;;;4994557;28;20651;-70
2022/07/11 00:26:01;;;;;;;8.13;3.17;;;11.20;99.90;;;;;;4995023;28;20552;-70
2022/07/11 00:28:28;;;;;;;4.73;3.00;;;11.20;99.90;;;;;;4994512;28;20774;-70
2022/07/11 00:30:55;;;;;;;4.47;3.00;;;11.20;99.90;;;;;;4994392;28;20201;-70
2022/07/11 00:33:22;;;;;;;9.70;3.07;;;11.20;99.90;;;;;;4994488;28;20595;-70
2022/07/11 00:35:49;;;;;;;8.20;3.23;;;11.20;99.90;;;;;;4995026;28;20615;-69
2022/07/11 00:38:16;;;;;;;7.23;3.40;;;11.20;99.90;;;;;;4994407;28;20647;-71
2022/07/11 00:40:43;;;;;;;7.37;2.87;;;11.10;99.90;;;;;;4994511;28;20293;-70
2022/07/11 00:43:10;;;;;;;8.13;3.00;;;11.20;99.90;;;;;;4994353;28;20208;-70
2022/07/11 00:45:37;;;;;;;5.83;3.00;;;11.10;99.90;;;;;;4994163;28;20288;-69
2022/07/11 00:48:04;;;;;;;5.93;3.13;;;11.00;99.90;;;;;;4993977;28;20240;-70
2022/07/11 00:50:32;;;;;;;6.10;2.90;;;11.00;99.90;;;;;;4994260;28;20193;-69
2022/07/11 00:52:58;;;;;;;7.20;2.80;;;10.90;99.90;;;;;;4995375;28;20283;-70
2022/07/11 00:55:27;;;;;;;6.20;3.20;;;10.90;99.90;;;;;;4995397;28;20196;-70
2022/07/11 00:57:55;;;;;;;8.23;2.97;;;10.90;99.90;;;;;;4994350;28;20211;-69
2022/07/11 01:00:22;;;;;;;7.17;3.20;;;10.90;99.90;;;;;;4994140;28;20203;-69
2022/07/11 01:02:49;;;;;;;3.63;2.90;;;10.80;99.90;;;;;;4995058;28;20304;-69
2022/07/11 01:05:16;;;;;;;6.23;3.10;;;10.90;99.90;;;;;;4995217;28;20276;-70
2022/07/11 01:07:42;;;;;;;5.83;3.00;;;11.00;99.90;;;;;;4993995;28;20220;-70
2022/07/11 01:10:09;;;;;;;5.63;3.17;;;11.00;99.90;;;;;;4995092;28;20611;-67
2022/07/11 01:12:36;;;;;;;8.17;3.30;;;10.90;99.90;;;;;;4994974;28;20193;-70
2022/07/11 01:15:03;;;;;;;9.97;3.47;;;10.80;99.90;;;;;;4993820;28;20205;-69
2022/07/11 01:17:30;;;;;;;6.77;3.30;;;10.80;99.90;;;;;;4994252;28;20211;-70
2022/07/11 01:19:57;;;;;;;10.43;3.57;;;10.70;99.90;;;;;;4993588;28;20193;-70
2022/07/11 01:22:26;;;;;;;8.80;3.30;;;10.70;99.90;;;;;;4993560;28;20556;-69
2022/07/11 01:24:54;;;;;;;6.53;3.70;;;10.70;99.90;;;;;;4993714;28;20201;-70
2022/07/11 01:27:22;;;;;;;9.33;4.00;;;10.70;99.90;;;;;;4993572;28;20304;-70
2022/07/11 01:29:49;;;;;;;8.63;4.20;;;10.70;99.90;;;;;;4994507;28;20299;-70
2022/07/11 01:32:19;;;;;;;7.33;3.30;;;10.70;99.90;;;;;;4992896;28;20197;-70
2022/07/11 01:34:46;;;;;;;7.47;3.53;;;10.70;99.90;;;;;;4993168;28;20215;-69
2022/07/11 01:37:13;;;;;;;7.03;3.70;;;10.70;99.90;;;;;;4993576;28;20251;-69
2022/07/11 01:39:40;;;;;;;14.53;4.13;;;10.70;99.90;;;;;;4993613;28;20208;-70
2022/07/11 01:42:07;;;;;;;7.60;3.50;;;10.70;99.90;;;;;;4993146;28;20193;-69
2022/07/11 01:44:34;;;;;;;7.57;3.80;;;10.60;99.90;;;;;;4993080;28;20228;-69
2022/07/11 01:47:00;;;;;;;7.70;3.60;;;10.70;99.90;;;;;;4993041;28;20232;-69
2022/07/11 01:49:29;;;;;;;7.73;3.53;;;10.60;99.90;;;;;;4994239;28;20259;-69
2022/07/11 01:51:56;;;;;;;8.20;3.20;;;10.70;99.90;;;;;;4993240;28;20201;-69
2022/07/11 01:54:23;;;;;;;8.57;3.60;;;10.60;99.90;;;;;;4994466;28;20562;-69
2022/07/11 01:56:50;;;;;;;7.33;3.80;;;10.70;99.90;;;;;;4993439;28;20189;-69
2022/07/11 01:59:17;;;;;;;8.97;3.70;;;10.60;99.90;;;;;;4993171;28;20208;-68
2022/07/11 02:01:44;;;;;;;7.70;3.50;;;10.60;99.90;;;;;;4994071;28;20232;-69
2022/07/11 02:04:11;;;;;;;6.90;3.70;;;10.60;99.90;;;;;;4994157;28;20247;-68
2022/07/11 02:06:38;;;;;;;7.00;3.23;;;10.60;99.90;;;;;;4993156;28;20642;-69
2022/07/11 02:09:05;;;;;;;15.63;4.23;;;10.60;99.90;;;;;;4993069;28;20225;-69
2022/07/11 02:11:31;;;;;;;7.57;3.60;;;10.60;99.90;;;;;;4992939;28;20292;-69
2022/07/11 02:13:58;;;;;;;5.97;3.10;;;10.60;99.90;;;;;;4992836;28;20205;-68
2022/07/11 02:16:25;;;;;;;11.97;4.17;;;10.60;99.90;;;;;;4992823;28;20201;-68
2022/07/11 02:18:52;;;;;;;7.43;3.30;;;10.60;99.90;;;;;;4992693;28;20201;-69
2022/07/11 02:21:19;;;;;;;13.90;4.10;;;10.70;99.90;;;;;;4992977;28;20223;-69
2022/07/11 02:23:46;;;;;;;6.10;3.00;;;10.60;99.90;;;;;;4992476;28;20203;-71
2022/07/11 02:26:13;;;;;;;9.83;3.80;;;10.60;99.90;;;;;;4992814;28;20225;-70
2022/07/11 02:28:40;;;;;;;7.67;3.47;;;10.60;99.90;;;;;;4993762;28;20213;-68
2022/07/11 02:31:06;;;;;;;6.37;3.30;;;10.60;99.90;;;;;;4992624;28;20272;-69
2022/07/11 02:33:34;;;;;;;8.13;3.57;;;10.60;99.90;;;;;;4992707;28;20287;-69
2022/07/11 02:36:00;;;;;;;9.13;3.33;;;10.50;99.90;;;;;;4992656;28;20189;-69
2022/07/11 02:38:27;;;;;;;13.47;4.27;;;10.50;99.90;;;;;;4992674;28;20292;-69
2022/07/11 02:40:54;;;;;;;8.33;3.67;;;10.50;99.90;;;;;;4992439;28;20287;-69
2022/07/11 02:43:21;;;;;;;8.27;3.47;;;10.50;99.90;;;;;;4992350;28;20287;-68
2022/07/11 02:45:48;;;;;;;20.03;4.80;;;10.50;99.90;;;;;;4996303;28;20207;-69
2022/07/11 02:48:15;;;;;;;14.23;4.50;;;10.40;99.90;;;;;;4996228;28;20319;-69
2022/07/11 02:50:42;;;;;;;10.37;3.97;;;10.50;99.90;;;;;;4996390;28;20219;-69
2022/07/11 02:53:09;;;;;;;5.27;3.43;;;10.50;99.90;;;;;;4996218;28;20213;-69
2022/07/11 02:55:36;;;;;;;7.90;3.33;;;10.50;99.90;;;;;;4996385;28;20287;-69
2022/07/11 02:58:03;;;;;;;10.03;3.50;;;10.50;99.90;;;;;;4996348;28;20301;-69
2022/07/11 03:00:30;;;;;;;13.40;4.43;;;10.50;99.90;;;;;;4996295;28;20207;-69
2022/07/11 03:02:57;;;;;;;8.57;3.70;;;10.50;99.90;;;;;;4996131;28;20197;-70
2022/07/11 03:05:24;;;;;;;8.10;3.43;;;10.60;99.90;;;;;;4996406;28;20201;-70
2022/07/11 03:07:51;;;;;;;9.10;4.00;;;10.60;99.90;;;;;;4997294;28;20197;-69
2022/07/11 03:10:18;;;;;;;13.93;4.70;;;10.60;99.90;;;;;;4996179;28;20228;-69
2022/07/11 03:12:45;;;;;;;7.93;4.10;;;10.60;99.90;;;;;;4996991;28;20277;-72
2022/07/11 03:15:12;;;;;;;7.90;4.00;;;10.70;99.90;;;;;;4996130;28;20197;-70
2022/07/11 03:17:39;;;;;;;10.17;4.00;;;10.70;99.90;;;;;;4995873;28;20201;-69
2022/07/11 03:20:08;;;;;;;5.77;4.03;;;10.60;99.90;;;;;;4996023;28;20197;-70
2022/07/11 03:22:35;;;;;;;10.50;4.50;;;10.60;99.90;;;;;;4995661;28;20227;-69
2022/07/11 03:25:05;;;;;;;8.77;4.80;;;10.70;99.90;;;;;;4995777;28;20213;-69
2022/07/11 03:27:33;;;;;;;10.07;4.20;;;10.80;99.90;;;;;;4995591;28;20204;-71
2022/07/11 03:29:59;;;;;;;9.50;4.57;;;10.80;99.90;;;;;;4995828;28;20229;-70
2022/07/11 03:32:26;;;;;;;7.03;4.33;;;10.80;99.90;;;;;;4996624;28;20277;-70
2022/07/11 03:37:41;;;;;;;10.40;4.70;;;11.00;99.90;;;;;;4995543;28;20207;-71
2022/07/11 03:40:09;;;;;;;8.27;4.30;;;11.00;99.90;;;;;;4995495;28;20643;-70
2022/07/11 03:42:36;;;;;;;6.20;4.77;;;11.10;99.90;;;;;;4996550;28;20677;-71
2022/07/11 03:45:03;;;;;;;9.03;4.83;;;11.10;99.90;;;;;;4995886;28;20209;-70
2022/07/11 03:47:30;;;;;;;10.30;4.90;;;11.10;99.90;;;;;;4995253;28;20236;-70
2022/07/11 03:49:57;;;;;;;12.10;6.10;;;11.20;99.90;;;;;;4995435;28;20327;-70
2022/07/11 03:52:24;;;;;;;13.60;6.30;;;11.20;99.90;;;;;;4995035;28;20283;-70
2022/07/11 03:54:51;;;;;;;15.60;7.47;;;11.30;99.90;;;;;;4994996;28;20220;-69
2022/07/11 03:57:17;;;;;;;15.07;7.50;;;11.40;99.90;;;;;;4995622;28;20281;-70
2022/07/11 03:59:45;;;;;;;9.10;6.70;;;11.50;99.90;;;;;;4995259;28;20251;-69
2022/07/11 04:02:11;;;;;;;10.83;6.67;;;11.60;99.90;;;;;;4996530;28;20204;-69
2022/07/11 04:04:38;;;;;;;11.17;7.10;;;11.70;99.90;;;;;;4995205;28;20220;-68
2022/07/11 04:07:05;;;;;;;12.30;6.10;;;11.70;99.90;;;;;;4996179;28;20280;-69
2022/07/11 04:09:32;;;;;;;12.47;6.63;;;11.80;99.90;;;;;;4994789;28;20633;-68
2022/07/11 04:11:59;;;;;;;10.80;6.60;;;11.80;99.90;;;;;;4996060;28;20195;-68
2022/07/11 04:14:26;;;;;;;12.57;6.37;;;11.90;99.90;;;;;;4996135;28;20685;-68
2022/07/11 04:16:54;;;;;;;10.67;5.90;;;11.90;99.90;;;;;;4995159;28;20224;-69
2022/07/11 04:19:20;;;;;;;10.30;6.43;;;12.00;99.90;;;;;;4994854;28;20639;-70
2022/07/11 04:21:47;;;;;;;8.23;5.23;;;12.00;99.90;;;;;;4996469;28;20203;-70
2022/07/11 04:24:14;;;;;;;10.97;6.20;;;12.00;99.90;;;;;;4995787;28;20185;-69
2022/07/11 04:26:42;;;;;;;10.60;5.93;;;12.00;99.90;;;;;;4994622;28;20658;-69
2022/07/11 04:29:09;;;;;;;8.40;5.13;;;12.10;99.90;;;;;;4994550;28;20311;-68
2022/07/11 04:31:36;;;;;;;8.37;4.97;;;12.20;99.90;;;;;;4995665;28;20308;-70
2022/07/11 04:34:03;;;;;;;9.63;4.73;;;12.30;99.90;;;;;;4994405;28;20211;-68
2022/07/11 04:36:29;;;;;;;7.40;5.00;;;12.40;99.90;;;;;;4994480;28;20200;-68
2022/07/11 04:38:56;;;;;;;8.03;4.60;;;12.40;99.90;;;;;;4995847;28;20287;-69
2022/07/11 04:41:23;;;;;;;8.80;5.03;;;12.40;99.90;;;;;;4994279;28;20207;-69
2022/07/11 04:43:50;;;;;;;8.67;5.33;;;12.50;99.90;;;;;;4994276;28;20750;-69
2022/07/11 04:46:17;;;;;;;8.73;5.03;;;12.60;99.90;;;;;;4994293;28;20208;-69
2022/07/11 04:48:44;;;;;;;9.07;5.20;;;12.60;99.90;;;;;;4993825;28;20600;-68
2022/07/11 04:51:11;;;;;;;7.20;5.23;;;12.60;99.90;;;;;;4994092;28;20201;-68
2022/07/11 04:53:38;;;;;;;11.37;5.33;;;12.50;99.90;;;;;;4995046;28;20217;-68
2022/07/11 04:56:06;;;;;;;9.77;5.30;;;12.50;99.90;;;;;;4995528;28;20197;-68
2022/07/11 04:58:33;;;;;;;10.43;5.03;;;12.50;99.90;;;;;;4994338;28;20200;-69
2022/07/11 05:01:00;;;;;;;8.30;5.67;;;12.40;99.90;;;;;;4993978;28;20201;-68
2022/07/11 05:03:27;;;;;;;11.23;5.83;;;12.40;99.90;;;;;;4993722;28;20247;-68
2022/07/11 05:05:54;;;;;;;7.23;5.20;;;12.50;99.90;;;;;;4993892;28;20567;-68
2022/07/11 05:08:21;;;;;;;13.03;6.17;;;12.50;99.90;;;;;;4993577;28;20201;-68
2022/07/11 05:10:48;;;;;;;11.27;5.97;;;12.60;99.90;;;;;;4993805;28;20213;-69
2022/07/11 05:13:15;;;;;;;9.73;5.93;;;12.60;99.90;;;;;;4993597;28;20211;-69
2022/07/11 05:15:42;;;;;;;10.07;5.90;;;12.60;99.90;;;;;;4993810;28;20211;-69
2022/07/11 05:18:09;;;;;;;9.23;5.43;;;12.70;99.90;;;;;;4993779;28;20291;-68
2022/07/11 05:20:37;;;;;;;9.30;5.00;;;12.60;99.90;;;;;;4995117;28;20191;-69
2022/07/11 05:23:04;;;;;;;9.57;5.43;;;12.60;99.90;;;;;;4994469;28;20641;-69
2022/07/11 05:25:30;;;;;;;8.13;5.57;;;12.60;99.90;;;;;;4993739;28;20212;-69
2022/07/11 05:27:57;;;;;;;13.40;5.30;;;12.70;99.90;;;;;;4993540;28;20299;-69
2022/07/11 05:30:25;;;;;;;13.97;5.73;;;12.80;99.90;;;;;;4993408;28;20225;-69
2022/07/11 05:32:52;;;;;;;12.73;6.37;;;12.90;99.90;;;;;;4993194;28;20204;-69
2022/07/11 05:35:19;;;;;;;8.20;5.73;;;12.80;99.90;;;;;;4993420;28;20295;-69
2022/07/11 05:37:45;;;;;;;12.30;5.83;;;12.90;99.90;;;;;;4994522;28;20177;-69
2022/07/11 05:40:12;;;;;;;9.53;5.30;;;12.90;99.90;;;;;;4994478;28;20208;-69
2022/07/11 05:42:40;;;;;;;10.63;6.20;;;12.90;99.90;;;;;;4993235;28;20291;-69
2022/07/11 05:45:07;;;;;;;8.53;6.07;;;12.90;99.90;;;;;;4993452;28;20209;-69
2022/07/11 05:47:34;;;;;;;10.17;5.97;;;12.90;99.90;;;;;;4993107;28;20224;-68
2022/07/11 05:50:01;;;;;;;10.47;6.10;;;12.80;99.90;;;;;;4993372;28;20228;-68
2022/07/11 05:52:28;;;;;;;9.33;6.60;;;12.70;99.90;;;;;;4994046;28;20590;-69
2022/07/11 05:54:55;;;;;;;10.93;7.57;;;12.70;99.90;;;;;;4993164;28;20208;-68
2022/07/11 05:57:22;;;;;;;9.93;7.63;;;12.70;99.90;;;;;;4993162;28;20235;-68
2022/07/11 05:59:48;;;;;;;10.10;7.60;;;12.60;99.90;;;;;;4993555;28;20654;-69
2022/07/11 06:02:15;;;;;;;12.77;7.70;;;12.70;99.90;;;;;;4993970;28;20212;-69
2022/07/11 06:04:44;;;;;;;8.67;7.13;;;12.70;99.90;;;;;;4993971;28;20276;-68
2022/07/11 06:07:11;;;;;;;9.57;6.90;;;12.70;99.90;;;;;;4992674;28;20753;-68
2022/07/11 06:09:38;;;;;;;9.23;6.93;;;12.60;99.90;;;;;;4992908;28;20252;-68
2022/07/11 06:12:06;;;;;;;9.23;6.10;;;12.60;99.90;;;;;;4993994;28;20189;-69
2022/07/11 06:14:33;;;;;;;12.57;6.20;;;12.60;99.90;;;;;;4993113;28;20305;-68
2022/07/11 06:17:00;;;;;;;8.37;5.70;;;12.70;99.90;;;;;;4993090;28;20283;-68
2022/07/11 06:19:28;;;;;;;10.37;6.07;;;12.80;99.90;;;;;;4992095;28;20231;-69
2022/07/11 06:21:55;;;;;;;8.70;5.30;;;12.90;99.90;;;;;;4992204;28;20548;-68
2022/07/11 06:24:22;;;;;;;12.60;5.50;;;12.90;99.90;;;;;;4994022;28;20207;-68
2022/07/11 06:26:49;;;;;;;6.80;4.97;;;13.00;99.90;;;;;;4992925;28;20200;-68
2022/07/11 06:29:16;;;;;;;7.57;4.60;;;13.00;99.90;;;;;;4992833;28;20212;-68
2022/07/11 06:31:43;;;;;;;7.20;4.23;;;13.00;99.90;;;;;;4989376;28;20732;-68
2022/07/11 06:34:10;;;;;;;7.83;4.33;;;13.00;99.90;;;;;;4979343;28;20252;-69
2022/07/11 06:36:37;;;;;;;6.33;4.40;;;13.00;99.90;;;;;;4972949;28;20292;-70
2022/07/11 06:39:03;;;;;;;6.70;4.00;;;13.10;99.90;;;;;;4973172;28;20207;-66
2022/07/11 06:41:30;;;;;;;8.03;4.03;;;13.10;99.90;;;;;;4981341;28;20189;-69
2022/07/11 06:43:57;;;;;;;6.10;4.60;;;13.20;99.90;;;;;;4982327;28;20199;-69
2022/07/11 06:46:26;;;;;;;7.37;4.40;;;13.30;99.90;;;;;;4988698;28;20214;-68
2022/07/11 06:48:53;;;;;;;9.07;5.00;;;13.40;99.90;;;;;;4992369;28;20232;-69
2022/07/11 06:51:21;;;;;;;9.90;4.77;;;13.40;99.90;;;;;;4993350;28;20313;-69
2022/07/11 06:53:48;;;;;;;7.70;4.87;;;13.50;99.90;;;;;;4993398;28;20625;-68
2022/07/11 06:56:15;;;;;;;8.70;4.90;;;13.50;99.90;;;;;;4993957;28;20221;-68
2022/07/11 06:58:42;;;;;;;8.47;4.93;;;13.50;99.90;;;;;;4992639;28;20207;-68
2022/07/11 07:01:09;;;;;;;10.17;5.50;;;13.30;99.90;;;;;;4992519;28;20288;-67
2022/07/11 07:03:36;;;;;;;8.03;5.37;;;13.40;99.90;;;;;;4993415;28;20196;-67
2022/07/11 07:06:05;;;;;;;8.70;5.27;;;13.40;99.90;;;;;;4992057;28;20367;-67
2022/07/11 07:08:32;;;;;;;7.73;5.60;;;13.20;99.90;;;;;;4992297;28;20217;-68
2022/07/11 07:10:59;;;;;;;7.20;4.90;;;13.00;99.90;;;;;;4992094;28;20744;-68
2022/07/11 07:13:33;;;;;;;7.97;5.07;;;13.00;99.90;;;;;;4992306;28;20597;-68
2022/07/11 07:16:00;;;;;;;8.10;5.03;;;13.00;99.90;;;;;;4992359;28;20201;-69
2022/07/11 07:18:27;;;;;;;8.30;5.40;;;12.90;99.90;;;;;;4991775;28;20296;-68
2022/07/11 07:20:54;;;;;;;12.77;5.63;;;12.90;99.90;;;;;;4992182;28;20192;-67
2022/07/11 07:23:21;;;;;;;11.07;6.77;;;12.80;99.90;;;;;;4992039;28;20211;-67
2022/07/11 07:25:48;;;;;;;10.63;6.80;;;12.80;99.90;;;;;;4992105;28;20299;-67
2022/07/11 07:28:15;;;;;;;10.40;6.90;;;12.70;99.90;;;;;;4992257;28;20756;-69
2022/07/11 07:30:42;;;;;;;9.30;6.60;;;12.70;99.90;;;;;;4993426;28;20652;-67
2022/07/11 07:33:12;;;;;;;13.73;7.57;;;12.80;99.90;;;;;;4995657;28;20581;-67
2022/07/11 07:35:39;;;;;;;11.07;7.40;;;12.80;99.90;;;;;;4995997;28;20237;-67
2022/07/11 07:38:06;;;;;;;13.93;8.40;;;12.70;99.90;;;;;;4995451;28;20219;-66
2022/07/11 07:40:33;;;;;;;13.77;7.57;;;12.80;99.90;;;;;;4995351;28;20234;-68
2022/07/11 07:43:01;;;;;;;11.63;6.87;;;12.90;99.90;;;;;;4995206;28;20193;-70
2022/07/11 07:45:28;;;;;;;12.83;7.93;;;12.90;99.90;;;;;;4995334;28;20201;-68
2022/07/11 07:47:55;;;;;;;15.00;8.63;;;12.90;99.90;;;;;;4995131;28;20632;-70
2022/07/11 07:50:23;;;;;;;12.17;7.73;;;13.00;99.90;;;;;;4995029;28;20259;-70
2022/07/11 07:52:49;;;;;;;13.50;8.17;;;13.10;99.90;;;;;;4994880;28;20240;-66
2022/07/11 07:55:16;;;;;;;13.77;8.60;;;13.40;99.90;;;;;;4995065;28;20213;-68
2022/07/11 07:57:43;;;;;;;16.37;8.47;;;13.50;99.90;;;;;;4996475;28;20558;-68
2022/07/11 08:03:08;;;;;;;14.07;8.90;;;13.80;99.90;;;;;;4994925;28;20193;-70
2022/07/11 08:05:36;;;;;;;15.37;9.23;;;13.80;99.90;;;;;;4996124;28;20200;-68
2022/07/11 08:08:03;;;;;;;17.03;9.77;;;13.70;99.90;;;;;;4994772;28;20299;-70
2022/07/11 08:10:31;;;;;;;15.00;9.77;;;14.00;99.90;;;;;;4995078;28;20215;-69
2022/07/11 08:12:57;;;;;;;16.60;9.97;;;14.10;99.90;;;;;;4994615;28;20224;-68
2022/07/11 08:15:24;;;;;;;15.53;9.77;;;14.20;99.90;;;;;;4995010;28;20324;-67
2022/07/11 08:17:52;;;;;;;15.43;9.30;;;14.10;99.90;;;;;;4996080;28;20192;-70
2022/07/11 08:20:19;;;;;;;12.83;9.83;;;14.10;99.90;;;;;;4994707;28;20648;-68
2022/07/11 08:22:47;;;;;;;16.87;9.57;;;14.00;99.90;;;;;;4995722;28;20198;-70
2022/07/11 08:25:14;;;;;;;19.07;9.63;;;14.10;99.90;;;;;;4994408;28;20297;-67
2022/07/11 08:27:41;;;;;;;15.63;9.40;;;14.10;99.90;;;;;;4994605;28;20276;-68
2022/07/11 08:30:09;;;;;;;15.13;9.53;;;14.30;99.90;;;;;;4994932;28;20215;-68
2022/07/11 08:32:41;;;;;;;14.20;10.03;;;14.60;99.90;;;;;;4995693;28;20243;-68
2022/07/11 08:35:11;;;;;;;13.43;9.57;;;14.80;99.90;;;;;;4995605;28;20243;-67
2022/07/11 08:37:38;;;;;;;14.80;8.97;;;15.30;99.90;;;;;;4996009;28;20177;-69
2022/07/11 08:40:05;;;;;;;12.53;8.17;;;15.80;99.90;;;;;;4994351;28;20200;-67
2022/07/11 08:42:40;;;;;;;10.67;6.53;;;16.40;99.90;;;;;;4993733;28;20232;-67
2022/07/11 08:45:14;;;;;;;12.47;5.90;;;17.00;99.90;;;;;;4994350;28;20188;-69
2022/07/11 08:47:43;;;;;;;7.20;4.73;;;17.90;99.90;;;;;;4994077;28;20248;-68
2022/07/11 08:50:12;;;;;;;7.83;4.70;;;18.30;99.90;;;;;;4994297;28;20652;-68
2022/07/11 08:52:39;;;;;;;7.83;4.20;;;17.90;99.90;;;;;;4993782;28;20706;-72
2022/07/11 08:55:09;;;;;;;7.43;5.40;;;17.40;99.90;;;;;;4993932;28;20232;-69
2022/07/11 08:57:36;;;;;;;6.93;5.30;;;17.00;99.90;;;;;;4993993;28;20208;-68
2022/07/11 09:00:09;;;;;;;8.20;5.70;;;16.70;99.90;;;;;;4993887;28;20292;-68
2022/07/11 09:02:39;;;;;;;8.00;5.57;;;16.60;99.90;;;;;;4993902;28;20189;-69
2022/07/11 09:05:07;;;;;;;11.37;5.23;;;16.80;99.90;;;;;;4995021;28;20550;-69
2022/07/11 09:07:41;;;;;;;6.83;4.60;;;17.70;99.90;;;;;;4993954;28;20209;-69
2022/07/11 09:10:08;;;;;;;8.13;4.10;;;18.50;99.90;;;;;;4993596;28;20315;-70
2022/07/11 09:12:35;;;;;;;5.30;3.43;;;19.10;99.90;;;;;;4993789;28;20211;-69
2022/07/11 09:15:02;;;;;;;4.50;2.80;;;19.20;99.90;;;;;;4993699;28;20295;-69
2022/07/11 09:17:32;;;;;;;2.83;2.23;;;18.90;99.90;;;;;;4993546;28;20200;-68
2022/07/11 09:19:59;;;;;;;3.37;2.50;;;18.60;99.90;;;;;;4993755;28;20200;-68
2022/07/11 09:25:31;;;;;;;4.50;2.20;;;18.90;99.90;;;;;;4993400;28;20235;-71
2022/07/11 09:28:07;;;;;;;4.30;2.00;;;19.50;99.90;;;;;;4993711;28;20235;-74
2022/07/11 09:30:39;;;;;;;2.80;1.93;;;20.40;99.90;;;;;;4994497;28;20239;-75
2022/07/11 09:33:11;;;;;;;5.07;1.93;;;20.50;99.90;;;;;;4993122;28;20201;-74
2022/07/11 09:35:45;;;;;;;5.07;2.23;;;20.80;99.90;;;;;;4993183;28;20192;-68
2022/07/11 09:38:17;;;;;;;3.57;2.20;;;21.40;99.90;;;;;;4993566;28;20197;-69
2022/07/11 09:40:46;;;;;;;2.57;1.63;;;21.90;99.90;;;;;;4993221;28;20292;-71
2022/07/11 09:43:13;;;;;;;4.20;1.97;;;22.10;99.90;;;;;;4994536;28;20200;-72
2022/07/11 09:45:41;;;;;;;2.17;1.30;;;22.00;99.90;;;;;;4993101;28;20297;-71
2022/07/11 09:48:09;;;;;;;1.85;1.55;;;21.70;99.90;;;;;;5005091;28;20625;-69
2022/07/11 09:50:36;;;;;;;2.23;1.50;;;21.80;99.90;;;;;;5013794;28;20239;-69
2022/07/11 09:53:11;;;;;;;2.27;1.33;;;21.90;99.90;;;;;;4995930;28;20251;-64
2022/07/11 09:55:46;;;;;;;3.07;1.30;;;21.90;99.90;;;;;;4995631;28;20290;-63
2022/07/11 09:58:18;;;;;;;2.50;1.40;;;21.40;99.90;;;;;;4996223;28;20558;-64
2022/07/11 10:00:45;;;;;;;5.53;1.30;;;21.20;99.90;;;;;;4996515;28;20689;-62
2022/07/11 10:03:13;;;;;;;3.90;1.47;;;21.30;99.90;;;;;;4996141;28;20197;-63
2022/07/11 10:06:00;;;;;;;2.70;1.33;;;21.80;99.90;;;;;;5013521;28;20555;-68
2022/07/11 10:08:27;;;;;;;1.73;1.08;;;22.20;99.90;;;;;;4996349;28;20606;-72
2022/07/11 10:10:54;;;;;;;6.03;1.47;;;22.50;99.90;;;;;;5013396;28;20294;-72
2022/07/11 10:13:22;;;;;;;3.37;0.97;;;23.10;99.90;;;;;;4996165;28;20200;-69
2022/07/11 10:15:50;;;;;;;0.70;0.50;;;23.30;99.90;;;;;;4996210;28;20227;-69
2022/07/11 10:18:46;;;;;;;1.38;0.70;;;23.20;99.90;;;;;;4996086;28;20286;-69
2022/07/11 10:21:30;;;;;;;1.77;0.70;;;22.40;99.90;;;;;;5013227;28;20593;-65
2022/07/11 10:24:16;;;;;;;1.55;0.60;;;23.00;99.90;;;;;;4995691;28;20210;-65
2022/07/11 10:26:54;;;;;;;2.38;0.60;;;23.70;99.90;;;;;;4995720;28;20202;-66
2022/07/11 10:29:34;;;;;;;1.27;0.70;;;24.00;99.90;;;;;;4994849;28;20527;-66
2022/07/11 10:32:05;;;;;;;1.23;0.80;;;24.20;99.90;;;;;;5013508;28;20224;-65
2022/07/11 10:34:42;;;;;;;1.60;0.70;;;24.50;99.90;;;;;;4995846;28;20192;-66
2022/07/11 10:37:11;;;;;;;1.63;0.75;;;24.60;99.90;;;;;;4995842;28;20295;-66
2022/07/11 10:39:56;;;;;;;0.93;0.70;;;24.40;99.90;;;;;;4995608;28;20279;-67
2022/07/11 10:42:37;;;;;;;1.42;0.55;;;24.20;99.90;;;;;;4995390;28;20258;-67
2022/07/11 10:45:08;;;;;;;0.85;0.57;;;23.90;99.90;;;;;;5013559;28;20279;-66
2022/07/11 10:47:43;;;;;;;2.33;0.55;;;23.80;99.90;;;;;;4995378;28;20230;-66
2022/07/11 10:50:37;;;;;;;0.90;0.57;;;23.60;99.90;;;;;;4995226;28;20228;-68
2022/07/11 10:53:09;;;;;;;1.27;0.50;;;23.10;99.90;;;;;;4995184;28;20224;-66
2022/07/11 10:55:44;;;;;;;1.70;0.50;;;22.60;99.90;;;;;;5013035;28;20200;-67
2022/07/11 10:58:22;;;;;;;1.25;0.40;;;22.10;99.90;;;;;;4995460;28;20291;-68
2022/07/11 11:01:09;;;;;;;4.23;0.80;;;22.00;99.90;;;;;;4995109;28;20282;-67
2022/07/11 11:03:36;;;;;;;1.30;1.20;;;21.50;99.90;;;;;;5013349;28;20654;-66
2022/07/11 11:06:04;;;;;;;2.10;1.47;;;21.20;99.90;;;;;;4997858;28;20295;-68
2022/07/11 11:08:34;;;;;;;1.50;1.40;;;21.10;99.90;;;;;;4999093;28;20287;-66
2022/07/11 11:11:04;;;;;;;2.73;1.10;;;21.10;99.90;;;;;;4999286;28;20228;-67
2022/07/11 11:13:35;;;;;;;1.37;0.80;;;21.30;99.90;;;;;;4999075;28;20291;-67
2022/07/11 11:16:18;;;;;;;1.60;0.80;;;21.40;99.90;;;;;;4999188;28;20232;-68
2022/07/11 11:18:45;;;;;;;2.30;1.10;;;20.90;99.90;;;;;;4999447;28;20200;-68
2022/07/11 11:21:17;;;;;;;2.40;1.00;;;21.30;99.90;;;;;;4998811;28;20261;-65
2022/07/11 11:24:00;;;;;;;1.53;0.60;;;21.50;99.90;;;;;;4999001;28;20228;-67
2022/07/11 11:26:47;;;;;;;2.40;1.67;;;21.10;99.90;;;;;;4998898;28;20597;-67
2022/07/11 11:29:25;;;;;;;2.70;0.90;;;21.60;99.90;;;;;;5016849;28;20196;-66
2022/07/11 11:31:58;;;;;;;1.33;0.50;;;22.20;99.90;;;;;;4998801;28;20306;-69
2022/07/11 11:34:26;;;;;;;1.33;1.03;;;22.00;99.90;;;;;;4998809;28;20724;-69
2022/07/11 11:36:56;;;;;;;0.80;0.80;;;21.90;99.90;;;;;;4998566;28;20200;-68
2022/07/11 11:39:29;;;;;;;0.77;0.70;;;22.20;99.90;;;;;;4982532;28;20262;-70
2022/07/11 11:42:04;;;;;;;1.77;0.90;;;22.90;99.90;;;;;;4998536;28;20302;-70
2022/07/11 11:44:32;;;;;;;2.65;0.50;;;23.30;99.90;;;;;;4999290;28;20655;-68
2022/07/11 11:46:59;;;;;;;1.77;0.70;;;23.60;99.90;;;;;;4998467;28;20291;-70
2022/07/11 11:49:26;;;;;;;2.13;0.80;;;24.10;99.90;;;;;;4998469;28;20291;-68
2022/07/11 11:51:56;;;;;;;1.75;0.70;;;24.70;99.90;;;;;;4998402;28;20234;-69
2022/07/11 11:54:25;;;;;;;1.85;0.70;;;24.60;99.90;;;;;;4998869;28;20216;-71
2022/07/11 11:56:53;;;;;;;2.95;0.85;;;25.10;99.90;;;;;;4998564;28;20653;-70
2022/07/11 11:59:29;;;;;;;0.70;0.70;;;25.60;99.90;;;;;;4998429;28;20627;-71
2022/07/11 12:01:57;;;;;;;1.17;0.50;;;26.10;99.90;;;;;;4998724;28;20531;-69
2022/07/11 12:04:24;;;;;;;0.77;0.50;;;26.30;97.60;;;;;;4997974;28;20202;-73
2022/07/11 12:06:50;;;;;;;0.88;0.45;;;25.80;94.20;;;;;;4998139;28;20591;-73
2022/07/11 12:09:46;;;;;;;0.88;0.50;;;25.90;94.90;;;;;;4998198;28;20700;-71
2022/07/11 12:14:57;;;;;;;3.35;0.60;;;26.20;95.30;;;;;;4998363;28;20207;-68
2022/07/11 12:17:25;;;;;;;1.17;0.52;;;26.80;92.80;;;;;;4997460;28;20204;-74
2022/07/11 12:19:53;;;;;;;2.00;0.60;;;25.80;92.90;;;;;;4998290;28;20200;-73
2022/07/11 12:22:20;;;;;;;0.68;0.60;;;26.60;93.20;;;;;;4997773;28;20298;-71
2022/07/11 12:24:51;;;;;;;0.57;0.40;;;26.10;91.50;;;;;;4998330;28;20663;-73
2022/07/11 12:27:23;;;;;;;1.17;0.60;;;26.80;90.90;;;;;;4998003;28;20303;-72
2022/07/11 12:29:51;;;;;;;0.60;0.55;;;25.40;90.20;;;;;;4998117;28;20296;-71
2022/07/11 12:32:19;;;;;;;1.02;0.60;;;25.60;91.60;;;;;;4997975;28;20216;-68
2022/07/11 12:34:47;;;;;;;0.60;0.50;;;25.20;90.00;;;;;;5015252;28;20223;-73
2022/07/11 12:37:19;;;;;;;0.50;0.40;;;24.90;92.50;;;;;;5015590;28;20219;-72
2022/07/11 12:39:56;;;;;;;0.63;0.57;;;25.20;93.00;;;;;;4997798;28;20208;-72
2022/07/11 12:42:28;;;;;;;2.50;0.70;;;24.80;93.00;;;;;;4997502;28;20286;-70
2022/07/11 12:44:59;;;;;;;0.40;0.40;;;24.90;93.90;;;;;;4997475;28;20279;-70
2022/07/11 12:47:28;;;;;;;0.77;0.60;;;24.50;92.70;;;;;;4994472;28;20236;-72
2022/07/11 12:49:56;;;;;;;0.60;0.57;;;23.80;93.50;;;;;;4994079;28;20288;-70
2022/07/11 12:52:23;;;;;;;2.08;0.40;;;23.00;94.70;;;;;;4994014;28;20327;-69
2022/07/11 12:55:00;;;;;;;3.53;0.60;;;22.10;95.90;;;;;;4993808;28;20287;-73
2022/07/11 12:57:27;;;;;;;0.70;0.40;;;20.90;99.90;;;;;;4973878;28;20209;-71
2022/07/11 12:59:54;;;;;;;0.90;0.50;;;19.40;99.90;;;;;;4974695;28;20232;-70
2022/07/11 13:02:26;;;;;;;0.93;0.40;;;18.80;99.90;;;;;;4974115;28;20284;-72